Time;durP1;ratioP1;P1;durP2;ratioP2;P2;SDS_P1;SDS_P2;PMS_P1;PMS_P2;Temp;Humidity;BMP_temperature;BMP_pressure;BME280_temperature;BME280_humidity;BME280_pressure;Samples;Min_cycle;Max_cycle;Signal;HPM_P1;HPM_P2
2023/08/09 00:00:11;;;;;;;2.08;0.60;;;14.40;96.80;;;;;;4898970;29;20059;-85
2023/08/09 00:02:38;;;;;;;1.98;0.70;;;14.40;96.90;;;;;;4865925;29;20127;-82
2023/08/09 00:05:06;;;;;;;1.08;0.50;;;14.40;97.00;;;;;;4875340;29;20048;-83
2023/08/09 00:07:33;;;;;;;1.92;0.82;;;14.30;97.00;;;;;;4895897;29;20100;-83
2023/08/09 00:10:00;;;;;;;1.48;0.70;;;14.40;97.00;;;;;;4899699;29;20036;-82
2023/08/09 00:12:27;;;;;;;3.00;0.60;;;14.40;97.00;;;;;;4861375;29;20169;-82
2023/08/09 00:14:54;;;;;;;1.88;0.43;;;14.40;97.00;;;;;;4900620;29;20036;-83
2023/08/09 00:17:42;;;;;;;0.80;0.45;;;14.40;96.90;;;;;;4891812;29;20040;-82
2023/08/09 00:20:11;;;;;;;0.93;0.43;;;14.50;96.90;;;;;;4898757;29;20491;-82
2023/08/09 00:22:39;;;;;;;2.38;0.77;;;14.50;96.90;;;;;;4895071;29;20059;-82
2023/08/09 00:25:10;;;;;;;1.50;0.65;;;14.50;96.90;;;;;;4900870;29;20044;-82
2023/08/09 00:27:38;;;;;;;0.95;0.50;;;14.50;96.90;;;;;;4895998;29;20124;-75
2023/08/09 00:30:08;;;;;;;1.17;0.50;;;14.40;96.90;;;;;;4862205;29;20085;-75
2023/08/09 00:32:39;;;;;;;1.73;0.75;;;14.40;97.20;;;;;;4890756;29;20056;-75
2023/08/09 00:35:08;;;;;;;1.65;0.73;;;14.40;97.00;;;;;;4876313;29;20143;-82
2023/08/09 00:37:38;;;;;;;1.90;0.85;;;14.30;97.00;;;;;;4893649;29;20045;-82
2023/08/09 00:40:07;;;;;;;1.83;0.90;;;14.30;97.00;;;;;;4893875;29;20060;-83
2023/08/09 00:42:35;;;;;;;1.40;0.70;;;14.20;97.10;;;;;;4897239;29;20374;-82
2023/08/09 00:45:03;;;;;;;1.13;0.57;;;14.20;97.40;;;;;;4862345;29;21291;-82
2023/08/09 00:47:32;;;;;;;1.52;0.70;;;14.10;97.40;;;;;;4878894;29;20044;-82
2023/08/09 00:50:00;;;;;;;1.73;0.90;;;14.10;97.20;;;;;;4894432;29;20048;-82
2023/08/09 00:52:27;;;;;;;1.40;0.88;;;14.10;97.30;;;;;;4878044;29;20053;-81
2023/08/09 00:54:55;;;;;;;1.73;0.82;;;14.10;97.30;;;;;;4863110;29;20052;-82
2023/08/09 00:57:23;;;;;;;2.60;1.02;;;14.10;97.30;;;;;;4897561;29;20055;-82
2023/08/09 00:59:50;;;;;;;2.50;1.10;;;14.20;97.30;;;;;;4880532;29;20073;-82
2023/08/09 01:02:17;;;;;;;2.22;1.00;;;14.20;97.30;;;;;;4863784;29;20565;-83
2023/08/09 01:04:44;;;;;;;1.70;0.82;;;14.20;97.30;;;;;;4895380;29;20047;-82
2023/08/09 01:07:17;;;;;;;2.38;1.17;;;14.20;97.20;;;;;;4879156;29;20048;-83
2023/08/09 01:10:18;;;;;;;3.22;1.13;;;14.20;97.30;;;;;;4895246;29;20053;-83
2023/08/09 01:13:05;;;;;;;3.22;1.42;;;14.10;97.30;;;;;;4895669;29;20080;-83
2023/08/09 01:15:38;;;;;;;2.45;1.33;;;14.00;97.30;;;;;;4895692;29;20084;-83
2023/08/09 01:18:08;;;;;;;5.38;2.30;;;14.00;97.50;;;;;;4909319;29;20059;-83
2023/08/09 01:20:37;;;;;;;3.03;1.77;;;14.00;97.50;;;;;;4899249;29;20401;-83
2023/08/09 01:23:17;;;;;;;3.10;1.60;;;14.00;97.50;;;;;;4897420;29;20509;-83
2023/08/09 01:25:45;;;;;;;3.15;1.65;;;14.00;97.50;;;;;;4898296;29;20421;-84
2023/08/09 01:28:15;;;;;;;3.75;2.08;;;14.00;97.50;;;;;;4879486;29;20123;-83
2023/08/09 01:30:44;;;;;;;3.53;2.00;;;14.10;97.50;;;;;;4883497;29;20409;-83
2023/08/09 01:33:11;;;;;;;4.93;2.85;;;14.10;97.40;;;;;;4874671;29;20096;-82
2023/08/09 01:35:48;;;;;;;5.88;3.00;;;14.20;97.40;;;;;;4884149;29;20104;-83
2023/08/09 01:38:22;;;;;;;5.15;2.58;;;14.20;97.40;;;;;;4895278;29;20626;-83
2023/08/09 01:40:51;;;;;;;5.88;3.40;;;14.20;97.40;;;;;;4871350;29;20052;-83
2023/08/09 01:43:55;;;;;;;5.57;2.72;;;14.30;97.50;;;;;;4895778;29;20064;-83
2023/08/09 01:46:23;;;;;;;5.55;3.00;;;14.30;97.40;;;;;;4870970;29;20053;-83
2023/08/09 01:48:50;;;;;;;5.88;3.15;;;14.30;97.70;;;;;;4903991;29;20040;-83
2023/08/09 01:51:18;;;;;;;6.65;3.53;;;14.30;97.40;;;;;;4894921;29;20052;-84
2023/08/09 01:54:04;;;;;;;6.35;3.85;;;14.30;97.40;;;;;;4864925;29;20104;-83
2023/08/09 01:56:31;;;;;;;7.10;4.00;;;14.30;97.40;;;;;;4895394;29;20076;-84
2023/08/09 01:58:59;;;;;;;7.45;4.05;;;14.30;97.50;;;;;;4848198;29;20052;-83
2023/08/09 02:01:27;;;;;;;6.55;3.70;;;14.40;97.50;;;;;;4879599;29;20068;-84
2023/08/09 02:03:54;;;;;;;6.57;4.03;;;14.40;97.50;;;;;;4899789;29;20052;-83
2023/08/09 02:06:21;;;;;;;7.85;4.15;;;14.40;97.60;;;;;;4868170;29;20045;-83
2023/08/09 02:09:08;;;;;;;8.90;5.18;;;14.30;97.50;;;;;;4866613;29;20080;-84
2023/08/09 02:11:37;;;;;;;7.55;4.28;;;14.40;97.60;;;;;;4876852;29;20139;-84
2023/08/09 02:14:05;;;;;;;7.82;4.10;;;14.30;97.60;;;;;;4875937;29;20076;-84
2023/08/09 02:16:32;;;;;;;6.53;3.85;;;14.30;97.60;;;;;;4882073;29;21354;-84
2023/08/09 02:19:00;;;;;;;7.65;4.25;;;14.40;97.60;;;;;;4893634;29;20123;-84
2023/08/09 02:21:27;;;;;;;9.27;4.40;;;14.40;97.70;;;;;;4860595;29;20044;-83
2023/08/09 02:23:54;;;;;;;9.13;4.53;;;14.40;97.70;;;;;;4889317;29;20040;-83
2023/08/09 02:26:22;;;;;;;8.38;3.85;;;14.30;97.70;;;;;;4876774;29;20053;-83
2023/08/09 02:28:49;;;;;;;6.07;3.58;;;14.40;97.70;;;;;;4893929;29;20092;-84
2023/08/09 02:31:19;;;;;;;7.07;3.83;;;14.40;97.70;;;;;;4877591;29;20040;-83
2023/08/09 02:33:46;;;;;;;5.97;3.17;;;14.40;97.70;;;;;;4884008;29;20492;-83
2023/08/09 02:36:13;;;;;;;6.68;3.45;;;14.40;97.70;;;;;;4883150;29;20465;-84
2023/08/09 02:38:41;;;;;;;8.50;4.28;;;14.40;97.60;;;;;;4870159;29;20423;-83
2023/08/09 02:41:09;;;;;;;7.53;3.63;;;14.40;97.70;;;;;;4863117;29;20060;-84
2023/08/09 02:43:36;;;;;;;8.15;5.03;;;14.40;97.60;;;;;;4865030;29;20104;-83
2023/08/09 02:46:06;;;;;;;6.65;4.07;;;14.40;97.70;;;;;;4864809;29;20048;-83
2023/08/09 02:48:34;;;;;;;7.18;4.35;;;14.40;97.70;;;;;;4894538;29;20049;-84
2023/08/09 02:51:01;;;;;;;7.55;3.90;;;14.40;97.70;;;;;;4894958;29;20055;-84
2023/08/09 02:53:55;;;;;;;6.78;3.42;;;14.40;97.70;;;;;;4880713;29;20064;-84
2023/08/09 02:56:23;;;;;;;6.68;2.88;;;14.50;97.70;;;;;;4877337;29;20512;-83
2023/08/09 02:58:50;;;;;;;6.35;3.20;;;14.40;97.70;;;;;;4878839;29;20045;-84
2023/08/09 03:01:17;;;;;;;6.72;3.03;;;14.50;97.70;;;;;;4891265;29;20045;-84
2023/08/09 03:03:44;;;;;;;7.38;3.78;;;14.50;97.60;;;;;;4876508;29;20157;-83
2023/08/09 03:06:11;;;;;;;7.07;3.83;;;14.50;97.60;;;;;;4878128;29;20120;-83
2023/08/09 03:08:41;;;;;;;8.30;4.72;;;14.50;97.70;;;;;;4860527;29;20128;-83
2023/08/09 03:11:08;;;;;;;10.02;5.50;;;14.50;98.00;;;;;;4863086;29;20045;-83
2023/08/09 03:13:39;;;;;;;11.80;4.95;;;14.50;97.80;;;;;;4897644;29;20052;-83
2023/08/09 03:16:44;;;;;;;8.07;4.60;;;14.50;97.80;;;;;;4866244;29;20040;-83
2023/08/09 03:19:11;;;;;;;8.32;4.68;;;14.50;97.80;;;;;;4889172;29;20059;-83
2023/08/09 03:21:42;;;;;;;8.68;4.70;;;14.50;97.80;;;;;;4892516;29;20052;-83
2023/08/09 03:24:12;;;;;;;9.00;4.38;;;14.50;97.80;;;;;;4862088;29;20054;-83
2023/08/09 03:26:40;;;;;;;8.63;4.27;;;14.50;97.80;;;;;;4878913;29;20049;-83
2023/08/09 03:29:08;;;;;;;8.43;4.07;;;14.50;97.80;;;;;;4894558;29;20356;-83
2023/08/09 03:31:36;;;;;;;8.07;4.15;;;14.60;97.80;;;;;;4861885;29;20140;-83
2023/08/09 03:34:04;;;;;;;8.25;4.35;;;14.60;97.80;;;;;;4870666;29;20076;-83
2023/08/09 03:36:31;;;;;;;10.35;4.60;;;14.60;97.80;;;;;;4880140;29;20155;-83
2023/08/09 03:38:58;;;;;;;9.85;5.13;;;14.60;97.80;;;;;;4876872;29;20501;-83
2023/08/09 03:41:26;;;;;;;8.38;5.03;;;14.60;97.80;;;;;;4849938;29;20053;-84
2023/08/09 03:43:54;;;;;;;10.55;5.75;;;14.60;97.80;;;;;;4865007;29;20072;-82
2023/08/09 03:46:21;;;;;;;9.98;5.53;;;14.60;97.80;;;;;;4890232;29;20072;-83
2023/08/09 03:49:07;;;;;;;13.18;7.00;;;14.70;97.80;;;;;;4880926;29;20080;-84
2023/08/09 03:51:40;;;;;;;10.65;6.38;;;14.70;97.90;;;;;;4885465;29;20497;-83
2023/08/09 03:54:08;;;;;;;11.20;6.63;;;14.60;98.20;;;;;;4852181;29;20135;-83
2023/08/09 03:56:37;;;;;;;11.70;6.80;;;14.70;98.00;;;;;;4879509;29;20048;-84
2023/08/09 03:59:04;;;;;;;10.55;5.97;;;14.60;97.90;;;;;;4856289;29;20051;-83
2023/08/09 04:01:31;;;;;;;11.32;6.05;;;14.60;98.00;;;;;;4896216;29;20040;-84
2023/08/09 04:03:58;;;;;;;10.75;6.50;;;14.60;98.00;;;;;;4880519;29;20052;-84
2023/08/09 04:06:25;;;;;;;10.20;5.05;;;14.60;98.00;;;;;;4863612;29;20067;-83
2023/08/09 04:08:52;;;;;;;14.13;7.55;;;14.60;98.00;;;;;;4884669;29;20040;-83
2023/08/09 04:11:19;;;;;;;10.50;5.90;;;14.60;98.10;;;;;;4882808;29;20414;-84
2023/08/09 04:13:46;;;;;;;13.77;5.72;;;14.60;98.10;;;;;;4883572;29;20096;-84
2023/08/09 04:16:14;;;;;;;9.90;5.00;;;14.60;98.10;;;;;;4882900;29;20115;-84
2023/08/09 04:18:41;;;;;;;9.65;4.80;;;14.70;98.10;;;;;;4881191;29;20036;-83
2023/08/09 04:21:08;;;;;;;10.27;5.10;;;14.70;98.10;;;;;;4897507;29;20037;-83
2023/08/09 04:23:35;;;;;;;10.35;5.40;;;14.70;98.20;;;;;;4865559;29;20047;-83
2023/08/09 04:26:03;;;;;;;8.82;4.82;;;14.70;98.10;;;;;;4881006;29;20081;-83
2023/08/09 04:28:30;;;;;;;9.90;4.88;;;14.70;98.10;;;;;;4879628;29;20112;-82
2023/08/09 04:30:57;;;;;;;9.48;4.88;;;14.70;98.10;;;;;;4878147;29;20051;-84
2023/08/09 04:33:24;;;;;;;12.63;6.53;;;14.70;98.10;;;;;;4894946;29;20557;-83
2023/08/09 04:35:51;;;;;;;9.90;5.70;;;14.70;98.10;;;;;;4880099;29;20545;-83
2023/08/09 04:38:19;;;;;;;11.32;5.00;;;14.70;98.10;;;;;;4863394;29;20056;-82
2023/08/09 04:40:47;;;;;;;9.55;4.43;;;14.70;98.10;;;;;;4879600;29;20045;-83
2023/08/09 04:43:14;;;;;;;9.65;4.53;;;14.80;98.10;;;;;;4897115;29;20096;-83
2023/08/09 04:45:41;;;;;;;12.40;5.40;;;14.70;98.10;;;;;;4893626;29;20421;-83
2023/08/09 04:48:15;;;;;;;10.30;6.22;;;14.80;98.10;;;;;;4885363;29;20044;-84
2023/08/09 04:50:43;;;;;;;10.95;5.25;;;14.80;98.10;;;;;;4897164;29;20056;-83
2023/08/09 04:53:10;;;;;;;9.35;4.45;;;14.80;98.10;;;;;;4895159;29;20057;-75
2023/08/09 04:55:38;;;;;;;9.82;4.93;;;14.80;98.10;;;;;;4876043;29;20126;-75
2023/08/09 04:58:05;;;;;;;7.10;3.88;;;14.80;98.10;;;;;;4876095;29;20489;-75
2023/08/09 05:00:32;;;;;;;7.95;4.13;;;14.70;98.10;;;;;;4877383;29;20485;-75
2023/08/09 05:03:00;;;;;;;6.45;3.63;;;14.70;98.20;;;;;;4857198;29;20051;-75
2023/08/09 05:05:28;;;;;;;10.38;4.45;;;14.80;98.20;;;;;;4874825;29;20052;-75
2023/08/09 05:07:55;;;;;;;12.02;5.90;;;14.80;98.20;;;;;;4874637;29;20056;-77
2023/08/09 05:10:22;;;;;;;10.52;4.75;;;14.80;98.20;;;;;;4849742;29;20489;-76
2023/08/09 05:12:49;;;;;;;10.63;4.93;;;14.80;98.20;;;;;;4879243;29;20109;-77
2023/08/09 05:15:16;;;;;;;12.30;6.10;;;14.80;98.20;;;;;;4861551;29;20040;-75
2023/08/09 05:17:43;;;;;;;10.48;5.05;;;14.80;98.10;;;;;;4878256;29;20047;-74
2023/08/09 05:20:11;;;;;;;9.30;5.05;;;14.90;98.10;;;;;;4891768;29;20060;-75
2023/08/09 05:22:38;;;;;;;14.20;7.75;;;14.90;98.10;;;;;;4875200;29;20116;-75
2023/08/09 05:25:05;;;;;;;13.77;6.70;;;14.90;98.10;;;;;;4890587;29;20052;-75
2023/08/09 05:27:32;;;;;;;10.80;5.85;;;14.90;98.10;;;;;;4870624;29;20056;-75
2023/08/09 05:29:59;;;;;;;11.88;5.82;;;15.00;98.10;;;;;;4846403;29;20688;-76
2023/08/09 05:32:26;;;;;;;13.10;6.55;;;15.00;98.10;;;;;;4899951;29;20048;-76
2023/08/09 05:34:56;;;;;;;12.18;6.13;;;15.00;98.10;;;;;;4887933;29;20083;-76
2023/08/09 05:37:23;;;;;;;13.93;7.25;;;15.00;98.00;;;;;;4893556;29;20041;-76
2023/08/09 05:39:50;;;;;;;16.55;8.95;;;15.10;98.00;;;;;;4866354;29;20099;-77
2023/08/09 05:42:17;;;;;;;19.45;9.68;;;15.10;98.00;;;;;;4874216;29;20048;-77
2023/08/09 05:44:44;;;;;;;17.13;8.30;;;15.10;98.10;;;;;;4867903;29;20041;-77
2023/08/09 05:47:11;;;;;;;17.75;9.63;;;15.10;98.10;;;;;;4879893;29;21172;-84
2023/08/09 05:49:41;;;;;;;18.52;7.38;;;15.10;98.10;;;;;;4862735;29;20059;-84
2023/08/09 05:52:08;;;;;;;16.60;7.55;;;15.10;98.40;;;;;;4886156;29;20049;-84
2023/08/09 05:54:38;;;;;;;15.13;7.85;;;15.20;98.10;;;;;;4904215;29;20834;-84
2023/08/09 05:57:06;;;;;;;14.85;7.30;;;15.20;98.10;;;;;;4861971;29;20143;-83
2023/08/09 05:59:33;;;;;;;15.52;7.05;;;15.20;98.10;;;;;;4876519;29;20102;-83
2023/08/09 06:02:02;;;;;;;13.32;6.97;;;15.30;98.00;;;;;;4878485;29;20052;-83
2023/08/09 06:04:29;;;;;;;14.05;6.18;;;15.30;98.00;;;;;;4865010;29;20049;-83
2023/08/09 06:06:56;;;;;;;13.48;6.47;;;15.40;98.00;;;;;;4877281;29;20098;-84
2023/08/09 06:09:23;;;;;;;13.90;6.25;;;15.40;97.90;;;;;;4854278;29;20501;-84
2023/08/09 06:12:08;;;;;;;15.23;6.40;;;15.40;97.90;;;;;;4863183;29;20044;-83
2023/08/09 06:14:35;;;;;;;13.35;6.28;;;15.40;97.90;;;;;;4892505;29;20799;-83
2023/08/09 06:17:02;;;;;;;13.60;6.65;;;15.40;97.90;;;;;;4893871;29;20037;-83
2023/08/09 06:19:30;;;;;;;14.35;6.97;;;15.50;97.90;;;;;;4892438;29;20116;-83
2023/08/09 06:22:37;;;;;;;12.40;5.93;;;15.50;97.80;;;;;;4894164;29;20044;-83
2023/08/09 06:25:05;;;;;;;16.23;7.43;;;15.50;97.80;;;;;;4891900;29;20048;-84
2023/08/09 06:27:32;;;;;;;14.70;7.00;;;15.50;98.10;;;;;;4896194;29;20044;-83
2023/08/09 06:29:59;;;;;;;15.10;6.93;;;15.40;97.90;;;;;;4882422;29;20052;-83
2023/08/09 06:32:27;;;;;;;17.35;6.95;;;15.40;97.90;;;;;;4892342;29;20045;-84
2023/08/09 06:34:54;;;;;;;17.15;7.75;;;15.40;97.90;;;;;;4860597;29;20080;-84
2023/08/09 06:37:21;;;;;;;15.13;6.90;;;15.30;98.00;;;;;;4897536;29;20048;-83
2023/08/09 06:39:48;;;;;;;13.27;6.53;;;15.40;98.00;;;;;;4898994;29;20163;-84
2023/08/09 06:42:16;;;;;;;13.13;5.68;;;15.40;98.10;;;;;;4854489;29;20057;-82
2023/08/09 06:44:47;;;;;;;11.57;5.22;;;15.50;98.00;;;;;;4876873;29;20435;-83
2023/08/09 06:47:14;;;;;;;10.63;5.38;;;15.70;97.80;;;;;;4898867;29;20061;-83
2023/08/09 06:49:41;;;;;;;12.88;5.70;;;15.80;97.70;;;;;;4893581;29;20048;-83
2023/08/09 06:52:08;;;;;;;14.20;6.30;;;15.90;97.60;;;;;;4878659;29;20131;-83
2023/08/09 06:54:35;;;;;;;13.32;6.50;;;15.90;97.60;;;;;;4892551;29;20072;-83
2023/08/09 06:57:03;;;;;;;13.10;6.22;;;16.00;97.50;;;;;;4876649;29;20063;-83
2023/08/09 06:59:30;;;;;;;14.43;6.43;;;16.10;97.40;;;;;;4875409;29;20049;-84
2023/08/09 07:01:58;;;;;;;16.10;7.32;;;16.10;97.40;;;;;;4894491;29;20060;-83
2023/08/09 07:04:26;;;;;;;15.70;7.00;;;16.20;97.40;;;;;;4877016;29;20047;-83
2023/08/09 07:06:54;;;;;;;15.20;6.70;;;16.20;97.30;;;;;;4889516;29;20054;-83
2023/08/09 07:09:22;;;;;;;14.23;5.95;;;16.30;97.30;;;;;;4896796;29;20119;-84
2023/08/09 07:11:49;;;;;;;15.00;6.47;;;16.30;97.20;;;;;;4858605;29;20048;-84
2023/08/09 07:14:16;;;;;;;13.98;7.30;;;16.40;97.50;;;;;;4883476;29;20442;-84
2023/08/09 07:16:43;;;;;;;13.20;6.25;;;16.40;97.20;;;;;;4865941;29;20047;-83
2023/08/09 07:19:11;;;;;;;12.88;6.20;;;16.40;97.20;;;;;;4895054;29;20509;-83
2023/08/09 07:21:38;;;;;;;11.05;6.13;;;16.50;97.10;;;;;;4878951;29;21616;-85
2023/08/09 07:24:07;;;;;;;12.00;6.20;;;16.50;97.10;;;;;;4876839;29;20700;-85
2023/08/09 07:26:35;;;;;;;11.45;5.95;;;16.60;97.30;;;;;;4879737;29;20056;-84
2023/08/09 07:29:03;;;;;;;10.60;5.82;;;16.60;96.90;;;;;;4872043;29;20398;-84
2023/08/09 07:31:30;;;;;;;12.05;6.47;;;16.70;96.90;;;;;;4866750;29;20143;-85
2023/08/09 07:33:57;;;;;;;11.13;5.88;;;16.70;96.70;;;;;;4871395;29;20080;-84
2023/08/09 07:36:24;;;;;;;10.55;6.13;;;16.70;96.70;;;;;;4883607;29;20076;-85
2023/08/09 07:38:54;;;;;;;10.70;6.03;;;16.70;96.70;;;;;;4864803;29;20543;-84
2023/08/09 07:41:21;;;;;;;10.63;5.35;;;16.70;96.70;;;;;;4881429;29;20048;-86
2023/08/09 07:43:48;;;;;;;7.93;4.75;;;16.80;96.70;;;;;;4866748;29;20077;-85
2023/08/09 07:46:15;;;;;;;7.38;4.03;;;16.90;96.60;;;;;;4670151;29;20052;-85
2023/08/09 07:48:42;;;;;;;9.32;4.80;;;16.90;96.50;;;;;;4896774;29;20077;-85
2023/08/09 07:51:13;;;;;;;8.90;5.03;;;16.90;96.50;;;;;;4879662;29;20047;-85
2023/08/09 07:53:40;;;;;;;8.77;5.15;;;17.00;96.50;;;;;;4883880;29;20057;-86
2023/08/09 07:56:11;;;;;;;6.95;4.57;;;17.10;96.40;;;;;;4869428;29;20405;-86
2023/08/09 07:58:59;;;;;;;9.48;5.22;;;17.20;96.30;;;;;;4904825;29;20051;-86
2023/08/09 08:01:26;;;;;;;8.25;4.30;;;17.30;96.10;;;;;;4896941;29;20044;-86
2023/08/09 08:03:53;;;;;;;6.68;3.70;;;17.30;96.00;;;;;;4880431;29;20568;-86
2023/08/09 08:06:22;;;;;;;6.38;3.58;;;17.50;96.00;;;;;;4883161;29;20052;-84
2023/08/09 08:08:49;;;;;;;5.65;3.28;;;17.50;95.90;;;;;;4886254;29;20055;-85
2023/08/09 08:11:19;;;;;;;8.63;5.40;;;17.60;95.80;;;;;;4848334;29;20098;-78
2023/08/09 08:13:46;;;;;;;10.50;5.50;;;17.60;95.60;;;;;;4767372;29;20552;-76
2023/08/09 08:16:14;;;;;;;6.50;4.32;;;17.60;95.70;;;;;;4881834;29;20055;-76
2023/08/09 08:18:41;;;;;;;6.35;3.30;;;17.70;95.80;;;;;;4881941;29;20174;-76
2023/08/09 08:21:08;;;;;;;5.70;3.83;;;17.80;95.70;;;;;;4791927;29;20351;-77
2023/08/09 08:23:36;;;;;;;7.63;3.83;;;17.90;95.60;;;;;;4848532;29;20056;-77
2023/08/09 08:26:05;;;;;;;6.97;3.50;;;18.00;95.50;;;;;;4879225;29;20057;-76
2023/08/09 08:28:32;;;;;;;6.93;4.43;;;18.10;95.40;;;;;;4865263;29;20469;-76
2023/08/09 08:31:04;;;;;;;8.20;4.05;;;18.10;95.30;;;;;;4848964;29;20044;-76
2023/08/09 08:33:31;;;;;;;7.43;4.65;;;18.10;95.30;;;;;;4861253;29;20600;-77
2023/08/09 08:35:59;;;;;;;6.90;4.68;;;18.20;95.20;;;;;;4876151;29;20040;-80
2023/08/09 08:38:46;;;;;;;10.30;6.65;;;18.20;95.10;;;;;;4896711;29;20050;-76
2023/08/09 08:41:13;;;;;;;5.45;4.03;;;18.20;94.80;;;;;;4882230;29;20071;-76
2023/08/09 08:43:40;;;;;;;5.47;3.70;;;18.10;94.90;;;;;;4881144;29;20056;-77
2023/08/09 08:46:13;;;;;;;5.10;3.55;;;18.20;94.90;;;;;;4864144;29;20045;-77
2023/08/09 08:48:47;;;;;;;6.32;3.17;;;18.30;94.70;;;;;;4899038;29;20135;-76
2023/08/09 08:51:14;;;;;;;6.60;3.28;;;18.40;94.60;;;;;;4879663;29;20131;-77
2023/08/09 08:53:42;;;;;;;4.93;2.97;;;18.50;94.60;;;;;;4863221;29;20048;-77
2023/08/09 08:56:14;;;;;;;5.45;3.70;;;18.60;94.50;;;;;;4861687;29;20140;-77
2023/08/09 08:58:41;;;;;;;;;;;18.70;94.10;;;;;;4879941;29;20048;-77
2023/08/09 09:01:09;;;;;;;6.28;3.42;;;18.70;94.00;;;;;;4899802;29;20361;-77
2023/08/09 09:03:38;;;;;;;5.03;3.13;;;18.80;93.80;;;;;;4893752;29;20454;-77
2023/08/09 09:06:05;;;;;;;5.28;3.50;;;18.90;93.50;;;;;;4895494;29;20080;-77
2023/08/09 09:08:41;;;;;;;4.15;2.80;;;19.10;93.40;;;;;;4861659;29;20048;-77
2023/08/09 09:11:18;;;;;;;5.97;2.83;;;19.30;93.30;;;;;;4877519;29;20056;-77
2023/08/09 09:13:50;;;;;;;4.03;2.28;;;19.40;93.20;;;;;;4855140;29;20389;-77
2023/08/09 09:16:20;;;;;;;3.10;1.88;;;19.50;93.30;;;;;;4860900;29;20052;-78
2023/08/09 09:18:49;;;;;;;2.58;1.70;;;19.60;93.30;;;;;;4895556;29;20092;-86
2023/08/09 09:21:18;;;;;;;3.38;2.22;;;19.60;93.20;;;;;;4881722;29;20075;-86
2023/08/09 09:23:45;;;;;;;4.00;2.60;;;19.60;93.20;;;;;;4878581;29;20052;-85
2023/08/09 09:26:15;;;;;;;4.88;2.08;;;19.70;93.00;;;;;;4881663;29;20092;-85
2023/08/09 09:28:44;;;;;;;4.45;2.20;;;19.80;93.00;;;;;;4861654;29;20493;-85
2023/08/09 09:31:13;;;;;;;3.67;2.75;;;19.90;92.80;;;;;;4879792;29;20037;-85
2023/08/09 09:33:44;;;;;;;4.22;2.03;;;19.80;92.50;;;;;;4878462;29;20044;-86
2023/08/09 09:36:55;;;;;;;2.50;1.58;;;19.80;92.60;;;;;;4895932;29;20504;-86
2023/08/09 09:39:22;;;;;;;3.13;1.05;;;20.10;92.40;;;;;;4877529;29;20052;-85
2023/08/09 09:41:50;;;;;;;2.35;1.25;;;20.30;92.30;;;;;;4848371;29;20521;-85
2023/08/09 09:44:19;;;;;;;2.35;1.20;;;20.40;92.00;;;;;;4893209;29;20621;-83
2023/08/09 09:46:57;;;;;;;2.38;1.05;;;20.40;91.90;;;;;;4895524;29;20060;-86
2023/08/09 09:49:24;;;;;;;2.42;1.35;;;20.30;91.90;;;;;;4908565;29;20045;-85
2023/08/09 09:51:56;;;;;;;2.33;1.27;;;20.10;92.10;;;;;;4850880;29;20056;-86
2023/08/09 09:54:24;;;;;;;3.42;1.40;;;20.00;92.10;;;;;;4882594;29;20045;-86
2023/08/09 09:56:51;;;;;;;2.17;1.00;;;19.90;92.10;;;;;;4701632;29;20079;-84
2023/08/09 09:59:18;;;;;;;2.85;1.38;;;19.80;92.20;;;;;;4880359;29;20051;-86
2023/08/09 10:02:24;;;;;;;2.78;1.10;;;19.90;92.20;;;;;;4878755;29;20108;-85
2023/08/09 10:04:51;;;;;;;2.03;1.10;;;20.10;91.90;;;;;;4895537;29;20147;-85
2023/08/09 10:07:19;;;;;;;4.20;1.33;;;20.20;91.80;;;;;;4895252;29;20120;-85
2023/08/09 10:09:47;;;;;;;1.90;1.02;;;20.30;91.50;;;;;;4849993;29;20159;-85
2023/08/09 10:12:14;;;;;;;2.50;0.80;;;20.40;91.40;;;;;;4894986;29;20494;-86
2023/08/09 10:14:42;;;;;;;2.00;0.90;;;20.40;91.40;;;;;;4896588;29;20123;-85
2023/08/09 10:17:10;;;;;;;1.45;0.77;;;20.50;91.30;;;;;;4896691;29;20044;-86
2023/08/09 10:19:43;;;;;;;2.08;0.60;;;20.60;91.60;;;;;;4867492;29;20052;-84
2023/08/09 10:22:11;;;;;;;1.35;0.52;;;20.60;91.30;;;;;;4842337;29;20087;-86
2023/08/09 10:24:44;;;;;;;2.13;0.80;;;20.50;91.40;;;;;;4880386;29;20090;-85
2023/08/09 10:27:12;;;;;;;1.65;0.60;;;20.40;91.30;;;;;;4892413;29;20059;-83
2023/08/09 10:29:41;;;;;;;1.40;0.60;;;20.30;91.40;;;;;;4856226;29;20108;-85
2023/08/09 10:32:08;;;;;;;1.35;0.50;;;20.20;91.50;;;;;;4885220;29;20045;-81
2023/08/09 10:34:40;;;;;;;1.45;0.60;;;20.10;91.50;;;;;;4897045;29;20041;-87
2023/08/09 10:37:11;;;;;;;2.00;0.60;;;20.10;91.50;;;;;;4880309;29;20045;-84
2023/08/09 10:39:40;;;;;;;2.15;0.63;;;20.00;91.50;;;;;;4863922;29;20067;-82
2023/08/09 10:42:13;;;;;;;2.53;0.70;;;20.00;91.50;;;;;;4847980;29;20063;-82
2023/08/09 10:44:43;;;;;;;1.50;0.70;;;19.90;91.40;;;;;;4894972;29;20504;-83
2023/08/09 10:47:14;;;;;;;1.60;0.60;;;20.00;91.40;;;;;;4892453;29;20505;-83
2023/08/09 10:49:50;;;;;;;1.23;0.60;;;20.10;91.20;;;;;;4877765;29;20053;-85
2023/08/09 10:52:19;;;;;;;2.08;0.82;;;20.20;90.70;;;;;;4773603;29;20493;-83
2023/08/09 10:55:24;;;;;;;1.33;0.50;;;20.30;90.60;;;;;;4879515;29;20135;-85
2023/08/09 10:58:36;;;;;;;2.50;0.82;;;20.50;90.00;;;;;;4882490;29;20048;-83
2023/08/09 11:01:04;;;;;;;2.20;0.73;;;20.70;89.10;;;;;;4901675;29;20052;-82
2023/08/09 11:03:32;;;;;;;1.95;0.77;;;20.80;88.90;;;;;;4910147;29;20057;-85
2023/08/09 11:06:00;;;;;;;2.00;1.00;;;20.90;88.50;;;;;;4896959;29;20485;-84
2023/08/09 11:08:29;;;;;;;2.28;0.88;;;21.00;87.70;;;;;;4893835;29;20049;-83
2023/08/09 11:11:01;;;;;;;3.33;1.10;;;21.10;87.70;;;;;;4901549;29;20498;-79
2023/08/09 11:13:31;;;;;;;2.60;0.93;;;21.20;87.30;;;;;;4899999;29;20051;-77
2023/08/09 11:16:07;;;;;;;1.65;0.70;;;21.20;87.20;;;;;;4853776;29;20044;-84
2023/08/09 11:18:34;;;;;;;1.30;0.60;;;21.40;87.20;;;;;;4882544;29;20045;-84
2023/08/09 11:21:01;;;;;;;1.70;0.70;;;21.40;87.20;;;;;;4882366;29;20420;-81
2023/08/09 11:23:30;;;;;;;1.65;0.70;;;21.40;87.00;;;;;;4898187;29;20052;-82
2023/08/09 11:25:57;;;;;;;1.75;0.85;;;21.40;87.20;;;;;;4865196;29;20048;-81
2023/08/09 11:28:24;;;;;;;1.85;1.00;;;21.30;87.50;;;;;;4873726;29;20109;-81
2023/08/09 11:30:53;;;;;;;1.85;1.05;;;21.20;88.00;;;;;;4873213;29;20052;-81
2023/08/09 11:33:20;;;;;;;2.90;1.42;;;21.00;88.30;;;;;;4857603;29;20052;-85
2023/08/09 11:35:47;;;;;;;3.50;1.10;;;21.00;87.40;;;;;;4884108;29;20072;-81
2023/08/09 11:38:16;;;;;;;2.95;1.67;;;21.10;87.60;;;;;;4897124;29;20045;-78
2023/08/09 11:40:45;;;;;;;4.13;1.95;;;21.10;86.70;;;;;;4907690;29;20040;-81
2023/08/09 11:43:17;;;;;;;4.18;2.15;;;21.20;86.20;;;;;;4896874;29;20048;-80
2023/08/09 11:45:48;;;;;;;4.78;2.10;;;21.20;84.90;;;;;;4881330;29;20369;-80
2023/08/09 11:48:33;;;;;;;3.75;1.90;;;21.10;84.60;;;;;;4900685;29;20057;-81
2023/08/09 11:51:06;;;;;;;2.42;1.30;;;21.30;84.90;;;;;;4900797;29;20482;-81
2023/08/09 11:53:35;;;;;;;2.83;1.25;;;21.60;84.50;;;;;;4898037;29;20044;-81
2023/08/09 11:56:05;;;;;;;2.17;1.52;;;21.90;83.80;;;;;;4864857;29;20139;-81
2023/08/09 11:58:34;;;;;;;2.70;1.15;;;22.30;82.30;;;;;;4896488;29;20041;-81
2023/08/09 12:01:23;;;;;;;2.08;1.20;;;22.60;81.80;;;;;;4864379;29;20096;-81
2023/08/09 12:03:57;;;;;;;3.20;1.05;;;22.70;80.90;;;;;;4877392;29;20068;-84
2023/08/09 12:06:44;;;;;;;2.22;1.20;;;23.10;80.40;;;;;;4861814;29;20045;-84
2023/08/09 12:09:49;;;;;;;2.22;1.20;;;23.30;78.80;;;;;;4889584;29;20056;-82
2023/08/09 12:12:33;;;;;;;2.60;1.00;;;23.40;77.40;;;;;;4876579;29;20493;-81
2023/08/09 12:15:01;;;;;;;2.88;1.40;;;23.20;78.00;;;;;;4891536;29;20049;-83
2023/08/09 12:17:32;;;;;;;3.33;1.17;;;22.90;77.90;;;;;;4891636;29;20052;-80
2023/08/09 12:20:01;;;;;;;2.85;1.42;;;23.10;77.90;;;;;;4897117;29;20123;-83
2023/08/09 12:22:29;;;;;;;3.28;0.90;;;23.20;76.40;;;;;;4892664;29;20075;-84
2023/08/09 12:24:57;;;;;;;1.98;1.10;;;23.40;75.60;;;;;;4886597;29;20049;-83
2023/08/09 12:27:25;;;;;;;1.80;0.70;;;23.90;74.10;;;;;;4878493;29;20056;-83
2023/08/09 12:29:52;;;;;;;3.17;1.27;;;24.30;73.70;;;;;;4895881;29;20078;-82
2023/08/09 12:32:20;;;;;;;4.10;1.05;;;24.70;71.40;;;;;;4890392;29;20052;-83
2023/08/09 12:34:49;;;;;;;1.88;0.75;;;25.10;69.50;;;;;;4894843;29;20045;-91
2023/08/09 12:37:17;;;;;;;1.35;0.80;;;25.40;68.60;;;;;;4881490;29;20066;-93
2023/08/09 12:39:45;;;;;;;1.30;0.70;;;25.50;68.90;;;;;;4837770;29;20100;-90
2023/08/09 12:42:12;;;;;;;1.55;0.70;;;25.90;68.60;;;;;;4869694;29;20175;-93
2023/08/09 12:49:24;;;;;;;1.73;0.88;;;24.50;68.70;;;;;;4881543;29;20109;-90
2023/08/09 12:52:22;;;;;;;2.67;0.80;;;23.70;69.00;;;;;;4885676;29;20517;-93
2023/08/09 12:54:49;;;;;;;2.17;0.85;;;24.50;68.30;;;;;;4894863;29;20135;-86
2023/08/09 12:57:17;;;;;;;1.85;0.70;;;25.10;66.40;;;;;;4894199;29;20041;-86
2023/08/09 12:59:45;;;;;;;1.15;0.50;;;25.60;64.90;;;;;;4880073;29;20096;-95
2023/08/09 13:02:14;;;;;;;1.60;0.60;;;26.20;63.80;;;;;;4885322;29;20095;-96